Bookmark and Share
Track history (hours):
 

Udo Maru

Last reported at 2014-Apr-13 15:30 UTC. Time now 2014-Apr-16 19:17 UTC.
Position N 34°37' E 134°54'.

Length 87 m; draft 4.9 m.

Type: Ship (hazmat cat A). MMSI: 431600499.

NotesDate/timePositionNaut miles runAvg speedWind from/ knotsBaromVisibWave heightAir tempDewpointWater temp
2014-Apr-13 15:30N 34°37' E 134°54'9 9.1
2014-Apr-13 14:33N 34°36' E 135°04'1010.4
2014-Apr-13 13:33N 34°25' E 135°03'1111.4
2014-Apr-13 12:33N 34°14' E 134°59'210 9.1
2014-Apr-12 13:33N 34°50' E 139°11'1311.7
2014-Apr-12 12:29N 34°57' E 139°24'1011.2
2014-Apr-12 11:33N 35°03' E 139°34'1111.3
2014-Apr-12 10:33N 35°10' E 139°45'1111.4
2014-Apr-12 09:33N 35°21' E 139°42'7 6.8
2014-Apr-12 08:33N 35°22' E 139°51'0 0.3
2014-Apr-12 07:30N 35°22' E 139°51'0 0.0
2014-Apr-12 06:33N 35°22' E 139°51'0 0.0
2014-Apr-12 05:33N 35°22' E 139°51'0 0.0
2014-Apr-12 04:30N 35°22' E 139°51'0 0.0
2014-Apr-12 03:33N 35°22' E 139°51'0 0.0
2014-Apr-12 02:33N 35°22' E 139°51'0 0.0
2014-Apr-12 01:30N 35°22' E 139°51'0 0.0
2014-Apr-12 00:33N 35°22' E 139°51'6 6.3
2014-Apr-11 23:34N 35°19' E 139°44'1110.9
2014-Apr-11 22:33N 35°08' E 139°45'  
2014-Apr-08 12:32N 34°09' E 134°59'1312.8
2014-Apr-08 11:33N 34°22' E 134°60'1212.0
2014-Apr-08 10:33N 34°34' E 135°03'  
2014-Apr-05 02:04N 34°37' E 134°54'612.2
2014-Apr-05 01:33N 34°37' E 135°02'1010.2
2014-Apr-05 00:33N 34°27' E 135°03'1211.4
2014-Apr-04 23:29N 34°15' E 134°59'1111.3
2014-Apr-04 22:33N 34°05' E 135°00'211 8.7
2014-Apr-03 22:13N 34°50' E 139°10'1111.6
2014-Apr-03 21:18N 34°57' E 139°20'911.6
2014-Apr-03 20:34N 35°01' E 139°29'1211.7
2014-Apr-03 19:33N 35°06' E 139°42'1111.0
2014-Apr-03 18:33N 35°17' E 139°45'9 8.5
2014-Apr-03 17:33N 35°25' E 139°47'5 4.7
2014-Apr-03 16:30N 35°22' E 139°51'  

Dump ship's entire track history

sailing weather and tide predictions

Udo Maru — JM6522 — position and weather